Time;durP1;ratioP1;P1;durP2;ratioP2;P2;SDS_P1;SDS_P2;PMS_P1;PMS_P2;Temp;Humidity;BMP_temperature;BMP_pressure;BME280_temperature;BME280_humidity;BME280_pressure;Samples;Min_cycle;Max_cycle;Signal;HPM_P1;HPM_P2
2023/09/13 00:02:08;;;;;;;13.33;11.93;;;17.90;99.90;;;;;;5095073;28;20462;-61
2023/09/13 00:04:35;;;;;;;13.90;11.87;;;17.90;99.90;;;;;;5094349;28;20445;-61
2023/09/13 00:07:02;;;;;;;13.40;11.47;;;17.80;99.90;;;;;;5095546;28;20438;-60
2023/09/13 00:09:30;;;;;;;14.07;11.40;;;17.80;99.90;;;;;;5094111;28;20955;-60
2023/09/13 00:11:57;;;;;;;12.50;11.20;;;17.70;99.90;;;;;;5093313;28;20650;-61
2023/09/13 00:14:23;;;;;;;12.27;10.20;;;17.70;99.90;;;;;;5094138;28;20438;-61
2023/09/13 00:16:50;;;;;;;14.80;13.03;;;17.70;99.90;;;;;;5094089;28;20474;-61
2023/09/13 00:19:17;;;;;;;13.63;10.80;;;17.70;99.90;;;;;;5094316;28;20442;-60
2023/09/13 00:21:44;;;;;;;13.53;10.60;;;17.70;99.90;;;;;;5094655;28;20834;-61
2023/09/13 00:24:11;;;;;;;11.40;9.97;;;17.70;99.90;;;;;;5094071;28;20442;-59
2023/09/13 00:26:39;;;;;;;12.00;10.30;;;17.70;99.90;;;;;;5095055;28;20445;-61
2023/09/13 00:29:05;;;;;;;11.97;10.27;;;17.70;99.90;;;;;;5099008;28;20446;-60
2023/09/13 00:31:32;;;;;;;12.20;9.97;;;17.70;99.90;;;;;;5097714;28;20454;-60
2023/09/13 00:33:59;;;;;;;13.57;10.20;;;17.70;99.90;;;;;;5098381;28;20438;-60
2023/09/13 00:36:26;;;;;;;12.77;10.40;;;17.70;99.90;;;;;;5097870;28;20434;-61
2023/09/13 00:38:52;;;;;;;11.90;10.13;;;17.70;99.90;;;;;;5098053;28;20438;-61
2023/09/13 00:41:19;;;;;;;14.23;9.47;;;17.70;99.90;;;;;;5097291;28;20446;-61
2023/09/13 00:43:47;;;;;;;13.53;10.33;;;17.70;99.90;;;;;;5097622;28;20488;-61
2023/09/13 00:46:15;;;;;;;11.50;9.43;;;17.70;99.90;;;;;;5097998;28;20442;-59
2023/09/13 00:48:43;;;;;;;9.80;8.00;;;17.70;99.90;;;;;;5099178;28;20441;-61
2023/09/13 00:51:10;;;;;;;14.33;10.30;;;17.70;99.90;;;;;;5097598;28;20445;-62
2023/09/13 00:53:37;;;;;;;11.13;8.70;;;17.70;99.90;;;;;;5097406;28;20446;-61
2023/09/13 00:56:04;;;;;;;11.63;9.20;;;17.70;99.90;;;;;;5097647;28;20449;-61
2023/09/13 00:58:32;;;;;;;11.33;10.10;;;17.70;99.90;;;;;;5097532;28;20478;-60
2023/09/13 01:01:00;;;;;;;12.43;8.97;;;17.70;99.90;;;;;;5097623;28;20449;-61
2023/09/13 01:03:27;;;;;;;12.90;9.63;;;17.70;99.90;;;;;;5097716;28;20520;-61
2023/09/13 01:05:55;;;;;;;12.13;10.80;;;17.70;99.90;;;;;;5097731;28;20449;-61
2023/09/13 01:08:22;;;;;;;13.17;10.83;;;17.70;99.90;;;;;;5097531;28;20463;-61
2023/09/13 01:10:49;;;;;;;11.50;10.30;;;17.70;99.90;;;;;;5097434;28;20461;-61
2023/09/13 01:13:15;;;;;;;10.17;9.17;;;17.70;99.90;;;;;;5097603;28;20812;-60
2023/09/13 01:15:50;;;;;;;11.37;9.87;;;17.70;99.90;;;;;;5097487;28;20449;-61
2023/09/13 01:18:24;;;;;;;10.70;9.70;;;17.70;99.90;;;;;;5097037;28;20457;-61
2023/09/13 01:21:07;;;;;;;9.10;8.20;;;17.60;99.90;;;;;;5097017;28;20471;-61
2023/09/13 01:23:58;;;;;;;11.97;9.73;;;17.60;99.90;;;;;;5096846;28;20464;-61
2023/09/13 01:26:40;;;;;;;12.00;9.70;;;17.60;99.90;;;;;;5098285;28;20422;-62
2023/09/13 01:29:14;;;;;;;10.73;9.63;;;17.60;99.90;;;;;;5098220;28;20427;-62
2023/09/13 01:31:41;;;;;;;10.03;8.90;;;17.60;99.90;;;;;;5098594;28;20511;-61
2023/09/13 01:34:08;;;;;;;10.83;9.73;;;17.50;99.90;;;;;;5096793;28;20830;-61
2023/09/13 01:36:35;;;;;;;12.63;10.83;;;17.50;99.90;;;;;;5097142;28;20811;-61
2023/09/13 01:39:02;;;;;;;11.57;10.37;;;17.50;99.90;;;;;;5095830;28;20438;-61
2023/09/13 01:41:38;;;;;;;12.27;9.83;;;17.50;99.90;;;;;;5096603;28;20805;-61
2023/09/13 01:44:06;;;;;;;11.00;9.90;;;17.50;99.90;;;;;;5096497;28;20426;-61
2023/09/13 01:46:39;;;;;;;10.43;9.33;;;17.50;99.90;;;;;;5096848;28;20785;-61
2023/09/13 01:49:07;;;;;;;9.30;8.40;;;17.50;99.90;;;;;;5096761;28;20446;-60
2023/09/13 01:51:34;;;;;;;12.70;8.30;;;17.50;99.90;;;;;;5096725;28;20469;-61
2023/09/13 01:54:01;;;;;;;8.50;7.70;;;17.50;99.90;;;;;;5096460;28;20446;-61
2023/09/13 01:56:27;;;;;;;9.27;8.17;;;17.50;99.90;;;;;;5096080;28;20829;-61
2023/09/13 01:58:54;;;;;;;8.33;7.63;;;17.40;99.90;;;;;;5096617;28;20479;-61
2023/09/13 02:01:21;;;;;;;10.47;8.57;;;17.40;99.90;;;;;;5102239;22;20952;-64
2023/09/13 02:03:49;;;;;;;8.97;8.07;;;17.40;99.90;;;;;;5035119;28;20903;-64
2023/09/13 02:06:16;;;;;;;8.60;7.70;;;17.30;99.90;;;;;;5034882;28;20441;-64
2023/09/13 02:08:44;;;;;;;9.77;7.90;;;17.30;99.90;;;;;;5034934;28;20901;-64
2023/09/13 02:11:10;;;;;;;9.07;8.17;;;17.30;99.90;;;;;;5035259;28;20764;-64
2023/09/13 02:13:37;;;;;;;8.77;7.87;;;17.30;99.90;;;;;;5035163;28;20441;-64
2023/09/13 02:16:04;;;;;;;9.40;7.60;;;17.30;99.90;;;;;;5034786;28;20447;-64
2023/09/13 02:18:32;;;;;;;9.00;8.10;;;17.30;99.90;;;;;;5034713;28;20476;-64
2023/09/13 02:21:00;;;;;;;10.73;9.77;;;17.30;99.90;;;;;;5035081;28;20461;-64
2023/09/13 02:23:26;;;;;;;11.67;10.47;;;17.30;99.90;;;;;;5035111;28;20448;-64
2023/09/13 02:25:54;;;;;;;10.67;8.50;;;17.30;99.90;;;;;;5034764;28;20938;-63
2023/09/13 02:28:21;;;;;;;10.27;9.00;;;17.30;99.90;;;;;;5035073;28;20441;-63
2023/09/13 02:30:47;;;;;;;11.23;9.37;;;17.30;99.90;;;;;;5035051;28;20436;-63
2023/09/13 02:33:14;;;;;;;13.10;10.73;;;17.30;99.90;;;;;;5035290;28;20444;-64
2023/09/13 02:35:41;;;;;;;11.53;9.83;;;17.30;99.90;;;;;;5035126;28;20437;-64
2023/09/13 02:38:09;;;;;;;12.73;9.20;;;17.30;99.90;;;;;;5035171;28;20483;-64
2023/09/13 02:40:37;;;;;;;10.93;9.73;;;17.30;99.90;;;;;;5034926;28;20441;-63
2023/09/13 02:43:04;;;;;;;13.10;9.43;;;17.30;99.90;;;;;;5034713;28;20442;-64
2023/09/13 02:45:31;;;;;;;11.97;10.20;;;17.30;99.90;;;;;;5035040;28;20452;-63
2023/09/13 02:47:58;;;;;;;11.23;10.10;;;17.30;99.90;;;;;;5035049;28;20500;-63
2023/09/13 02:50:24;;;;;;;16.20;12.80;;;17.30;99.90;;;;;;5034705;28;20456;-64
2023/09/13 02:52:51;;;;;;;14.27;12.30;;;17.30;99.90;;;;;;5034613;28;20982;-64
2023/09/13 02:55:19;;;;;;;14.10;12.27;;;17.30;99.90;;;;;;5035520;28;20547;-63
2023/09/13 02:57:46;;;;;;;12.53;10.47;;;17.30;99.90;;;;;;5034962;28;20960;-63
2023/09/13 03:00:14;;;;;;;13.13;11.33;;;17.30;99.90;;;;;;5034785;28;20451;-63
2023/09/13 03:02:41;;;;;;;14.17;11.20;;;17.30;99.90;;;;;;5034697;28;20475;-63
2023/09/13 03:05:08;;;;;;;14.13;12.37;;;17.30;99.90;;;;;;5034700;28;20444;-63
2023/09/13 03:07:35;;;;;;;14.93;12.33;;;17.30;99.90;;;;;;5034648;28;20758;-64
2023/09/13 03:10:02;;;;;;;15.80;13.70;;;17.30;99.90;;;;;;5034235;28;20967;-63
2023/09/13 03:12:30;;;;;;;16.17;13.47;;;17.30;99.90;;;;;;5034699;28;20477;-63
2023/09/13 03:14:57;;;;;;;18.13;13.90;;;17.30;99.90;;;;;;5034693;28;20449;-63
2023/09/13 03:17:24;;;;;;;15.53;13.40;;;17.30;99.90;;;;;;5034643;28;20480;-63
2023/09/13 03:19:50;;;;;;;15.73;13.70;;;17.30;99.90;;;;;;5034203;28;20436;-63
2023/09/13 03:22:19;;;;;;;15.77;14.00;;;17.30;99.90;;;;;;5033980;28;20465;-63
2023/09/13 03:24:46;;;;;;;15.43;12.63;;;17.30;99.90;;;;;;5034137;28;20444;-63
2023/09/13 03:27:13;;;;;;;13.73;12.20;;;17.30;99.90;;;;;;5033809;28;20475;-63
2023/09/13 03:29:41;;;;;;;15.00;12.33;;;17.30;99.90;;;;;;5033881;28;20514;-63
2023/09/13 03:32:07;;;;;;;16.63;12.80;;;17.30;99.90;;;;;;5033510;28;20464;-63
2023/09/13 03:34:35;;;;;;;18.37;14.00;;;17.30;99.90;;;;;;5033920;28;20489;-63
2023/09/13 03:37:02;;;;;;;17.67;13.70;;;17.40;99.90;;;;;;5033916;28;20541;-64
2023/09/13 03:39:29;;;;;;;20.20;14.03;;;17.40;99.90;;;;;;5033712;28;20576;-64
2023/09/13 03:41:56;;;;;;;17.83;14.20;;;17.40;99.90;;;;;;5033620;28;20464;-63
2023/09/13 03:44:23;;;;;;;21.20;15.40;;;17.40;99.90;;;;;;5033868;28;20433;-63
2023/09/13 03:46:51;;;;;;;29.93;21.10;;;17.40;99.90;;;;;;5033559;28;20436;-64
2023/09/13 03:49:18;;;;;;;31.80;20.17;;;17.40;99.90;;;;;;5033236;28;20953;-64
2023/09/13 03:51:45;;;;;;;30.97;19.87;;;17.40;99.90;;;;;;5033528;28;20461;-64
2023/09/13 03:54:11;;;;;;;27.90;19.17;;;17.40;99.90;;;;;;5033512;28;20448;-64
2023/09/13 03:56:38;;;;;;;30.10;19.90;;;17.40;99.90;;;;;;5033524;28;20926;-64
2023/09/13 03:59:05;;;;;;;33.47;21.20;;;17.40;99.90;;;;;;5033288;28;20484;-64
2023/09/13 04:01:32;;;;;;;30.60;20.03;;;17.40;99.90;;;;;;5047169;22;20507;-60
2023/09/13 04:04:00;;;;;;;29.37;19.70;;;17.40;99.90;;;;;;5033534;28;20930;-61
2023/09/13 04:06:26;;;;;;;33.70;19.50;;;17.40;99.90;;;;;;5033044;28;20445;-60
2023/09/13 04:12:12;;;;;;;34.53;20.67;;;17.50;99.90;;;;;;5111224;27;20560;-60
2023/09/13 04:14:39;;;;;;;34.27;20.20;;;17.40;99.90;;;;;;5111360;28;20434;-59
2023/09/13 04:17:05;;;;;;;31.40;20.43;;;17.40;99.90;;;;;;5111421;28;20448;-60
2023/09/13 04:19:32;;;;;;;33.53;21.47;;;17.40;99.90;;;;;;5111355;28;20452;-60
2023/09/13 04:21:59;;;;;;;31.80;21.10;;;17.50;99.90;;;;;;5111261;28;20450;-60
2023/09/13 04:24:25;;;;;;;37.20;21.40;;;17.50;99.90;;;;;;5110628;28;20835;-60
2023/09/13 04:26:52;;;;;;;33.50;20.77;;;17.50;99.90;;;;;;5111714;28;20442;-61
2023/09/13 04:29:20;;;;;;;37.77;22.07;;;17.50;99.90;;;;;;5110975;28;20463;-59
2023/09/13 04:31:47;;;;;;;34.43;21.63;;;17.50;99.90;;;;;;5110539;28;20477;-57
2023/09/13 04:34:14;;;;;;;37.90;22.93;;;17.50;99.90;;;;;;5110554;28;20522;-59
2023/09/13 04:36:41;;;;;;;36.97;22.20;;;17.60;99.90;;;;;;5110486;28;20943;-59
2023/09/13 04:39:08;;;;;;;36.97;21.97;;;17.60;99.90;;;;;;5110928;28;20441;-59
2023/09/13 04:41:34;;;;;;;31.00;20.17;;;17.60;99.90;;;;;;5110280;28;20956;-59
2023/09/13 04:44:01;;;;;;;34.97;20.80;;;17.60;99.90;;;;;;5110648;28;20433;-60
2023/09/13 04:46:29;;;;;;;31.43;21.03;;;17.60;99.90;;;;;;5111079;28;20446;-59
2023/09/13 04:48:57;;;;;;;31.60;20.33;;;17.60;99.90;;;;;;5111067;28;20444;-58
2023/09/13 04:51:23;;;;;;;32.50;21.33;;;17.60;99.90;;;;;;5110651;28;20481;-59
2023/09/13 04:53:50;;;;;;;32.80;20.20;;;17.60;99.90;;;;;;5110487;28;20437;-59
2023/09/13 04:56:17;;;;;;;34.03;19.97;;;17.60;99.90;;;;;;5110240;28;20460;-59
2023/09/13 04:58:44;;;;;;;33.70;21.50;;;17.60;99.90;;;;;;5110026;28;20555;-60
2023/09/13 05:01:10;;;;;;;34.90;22.27;;;17.60;99.90;;;;;;5109566;28;21029;-61
2023/09/13 05:03:38;;;;;;;34.93;21.43;;;17.60;99.90;;;;;;5110380;28;20442;-60
2023/09/13 05:06:05;;;;;;;34.00;21.70;;;17.60;99.90;;;;;;5110084;28;20438;-60
2023/09/13 05:08:32;;;;;;;36.73;21.63;;;17.60;99.90;;;;;;5110256;28;20449;-60
2023/09/13 05:10:58;;;;;;;31.87;20.47;;;17.60;99.90;;;;;;5109860;28;20477;-61
2023/09/13 05:13:25;;;;;;;31.20;20.40;;;17.60;99.90;;;;;;5110260;28;20445;-60
2023/09/13 05:15:52;;;;;;;34.23;21.37;;;17.60;99.90;;;;;;5109565;28;20930;-58
2023/09/13 05:18:19;;;;;;;30.43;20.83;;;17.60;99.90;;;;;;5110241;28;20603;-60
2023/09/13 05:20:47;;;;;;;30.53;20.07;;;17.60;99.90;;;;;;5109941;28;20434;-62
2023/09/13 05:23:13;;;;;;;33.63;20.67;;;17.60;99.90;;;;;;5098589;28;20445;-60
2023/09/13 05:25:44;;;;;;;28.60;19.03;;;17.60;99.90;;;;;;5096523;28;20442;-60
2023/09/13 05:28:11;;;;;;;34.97;21.43;;;17.70;99.90;;;;;;5096358;28;20934;-61
2023/09/13 05:30:38;;;;;;;29.77;20.20;;;17.70;99.90;;;;;;5096246;28;20485;-59
2023/09/13 05:33:05;;;;;;;29.57;19.57;;;17.70;99.90;;;;;;5096446;28;20462;-60
2023/09/13 05:35:32;;;;;;;31.27;19.43;;;17.70;99.90;;;;;;5096434;28;20430;-60
2023/09/13 05:38:00;;;;;;;26.40;17.90;;;17.80;99.90;;;;;;5096692;28;20495;-60
2023/09/13 05:40:28;;;;;;;30.73;19.30;;;17.80;99.90;;;;;;5096141;28;20449;-60
2023/09/13 05:42:55;;;;;;;22.63;16.70;;;17.80;99.90;;;;;;5096711;28;20453;-60
2023/09/13 05:45:23;;;;;;;22.40;15.60;;;17.90;99.90;;;;;;5095554;28;20438;-61
2023/09/13 05:47:50;;;;;;;21.17;15.20;;;17.90;99.90;;;;;;5095691;28;20449;-61
2023/09/13 05:50:16;;;;;;;18.17;14.10;;;17.90;99.90;;;;;;5095779;28;20462;-60
2023/09/13 05:52:43;;;;;;;18.20;12.37;;;18.00;99.90;;;;;;5095018;28;20458;-57
2023/09/13 05:55:11;;;;;;;15.70;11.70;;;18.00;99.90;;;;;;5094987;28;20444;-60
2023/09/13 05:57:38;;;;;;;13.00;9.93;;;18.00;99.90;;;;;;5094255;28;20490;-59
2023/09/13 06:00:07;;;;;;;14.63;10.80;;;18.10;99.90;;;;;;5094797;28;20457;-60
2023/09/13 06:02:34;;;;;;;16.60;10.50;;;18.10;99.90;;;;;;5095339;28;20465;-59
2023/09/13 06:05:02;;;;;;;14.03;10.27;;;18.10;99.90;;;;;;5096187;28;20445;-60
2023/09/13 06:07:29;;;;;;;12.20;10.07;;;18.20;99.90;;;;;;5095025;28;21038;-60
2023/09/13 06:09:58;;;;;;;10.93;9.20;;;18.20;99.90;;;;;;5095069;28;20442;-59
2023/09/13 06:12:26;;;;;;;13.30;9.70;;;18.20;99.90;;;;;;5095617;28;20945;-59
2023/09/13 06:14:55;;;;;;;11.07;9.93;;;18.20;99.90;;;;;;5095166;28;20442;-59
2023/09/13 06:17:22;;;;;;;10.90;8.83;;;18.20;99.90;;;;;;5095166;28;20442;-60
2023/09/13 06:19:49;;;;;;;8.73;7.50;;;18.20;99.90;;;;;;5095012;28;20451;-61
2023/09/13 06:22:17;;;;;;;8.33;7.20;;;18.20;99.90;;;;;;5094976;28;20974;-60
2023/09/13 06:24:43;;;;;;;7.53;6.73;;;18.30;99.90;;;;;;5094914;28;20446;-61
2023/09/13 06:27:10;;;;;;;7.77;6.97;;;18.30;99.90;;;;;;5094842;28;20465;-59
2023/09/13 06:29:38;;;;;;;9.50;8.50;;;18.30;99.90;;;;;;5095260;28;20449;-59
2023/09/13 06:32:06;;;;;;;11.23;10.20;;;18.30;99.90;;;;;;5095025;28;20480;-59
2023/09/13 06:34:33;;;;;;;11.13;10.00;;;18.30;99.90;;;;;;5094019;28;21009;-60
2023/09/13 06:36:59;;;;;;;11.20;10.10;;;18.30;99.90;;;;;;5094943;28;20446;-60
2023/09/13 06:39:26;;;;;;;11.20;10.10;;;18.30;99.90;;;;;;5094675;28;20442;-59
2023/09/13 06:41:53;;;;;;;12.03;10.93;;;18.40;99.90;;;;;;5094319;28;20454;-60
2023/09/13 06:44:20;;;;;;;12.10;10.80;;;18.40;99.90;;;;;;5094841;28;20438;-59
2023/09/13 06:46:48;;;;;;;13.00;11.70;;;18.50;99.90;;;;;;5094798;28;20438;-59
2023/09/13 06:49:14;;;;;;;11.53;10.43;;;18.50;99.90;;;;;;5094392;28;20820;-60
2023/09/13 06:51:41;;;;;;;12.93;11.63;;;18.60;99.90;;;;;;5095200;28;20493;-60
2023/09/13 06:54:08;;;;;;;13.70;11.63;;;18.80;99.90;;;;;;5096918;28;20434;-58
2023/09/13 06:56:34;;;;;;;12.67;10.90;;;18.80;99.90;;;;;;5095896;28;20454;-59
2023/09/13 06:59:01;;;;;;;13.57;12.27;;;18.80;99.90;;;;;;5094505;28;20445;-59
2023/09/13 07:01:28;;;;;;;12.63;11.43;;;18.90;99.90;;;;;;5094304;28;20531;-60
2023/09/13 07:03:57;;;;;;;13.53;12.33;;;19.00;99.90;;;;;;5094891;28;20438;-60
2023/09/13 07:06:24;;;;;;;13.87;12.47;;;19.10;99.90;;;;;;5094553;28;20442;-59
2023/09/13 07:08:50;;;;;;;12.83;11.53;;;19.10;99.90;;;;;;5094352;28;20451;-59
2023/09/13 07:11:17;;;;;;;13.23;11.60;;;19.00;99.90;;;;;;5093634;28;20865;-59
2023/09/13 07:13:44;;;;;;;13.60;12.20;;;18.90;99.90;;;;;;5094400;28;20439;-58
2023/09/13 07:16:11;;;;;;;12.80;11.60;;;18.90;99.90;;;;;;5093780;28;20940;-60
2023/09/13 07:18:37;;;;;;;12.80;11.60;;;18.90;99.90;;;;;;5093956;28;20442;-60
2023/09/13 07:21:05;;;;;;;12.90;11.60;;;18.90;99.90;;;;;;5093752;28;20453;-60
2023/09/13 07:23:32;;;;;;;11.90;10.80;;;18.80;99.90;;;;;;5093432;28;20935;-59
2023/09/13 07:25:59;;;;;;;11.70;10.60;;;18.80;99.90;;;;;;5094015;28;20434;-60
2023/09/13 07:28:26;;;;;;;12.37;11.17;;;18.80;99.90;;;;;;5094129;28;20465;-60
2023/09/13 07:30:53;;;;;;;12.07;10.47;;;18.70;99.90;;;;;;5093622;28;20450;-60
2023/09/13 07:33:19;;;;;;;16.43;10.30;;;18.70;99.90;;;;;;5094094;28;20907;-58
2023/09/13 07:35:46;;;;;;;11.50;10.33;;;18.70;99.90;;;;;;5094353;28;20473;-60
2023/09/13 07:38:14;;;;;;;11.50;10.50;;;18.80;99.90;;;;;;5094143;28;20940;-60
2023/09/13 07:40:41;;;;;;;10.37;9.20;;;19.00;99.90;;;;;;5093672;28;20445;-60
2023/09/13 07:43:08;;;;;;;9.20;8.30;;;19.10;99.90;;;;;;5094045;28;20451;-59
2023/09/13 07:45:35;;;;;;;11.63;9.33;;;19.20;99.90;;;;;;5094186;28;20445;-59
2023/09/13 07:48:02;;;;;;;9.23;8.40;;;19.40;99.90;;;;;;5094039;28;20446;-59
2023/09/13 07:50:30;;;;;;;9.40;8.50;;;19.50;99.90;;;;;;5093600;28;20454;-59
2023/09/13 07:52:57;;;;;;;9.10;8.30;;;19.70;99.90;;;;;;5093857;28;20535;-59
2023/09/13 07:56:17;;;;;;;9.23;8.30;;;19.80;99.90;;;;;;5093718;28;20442;-59
2023/09/13 07:58:45;;;;;;;8.93;8.13;;;19.90;99.90;;;;;;5093398;28;20446;-60
2023/09/13 08:01:12;;;;;;;8.23;7.53;;;19.90;99.90;;;;;;5093265;28;20458;-59
2023/09/13 08:03:39;;;;;;;7.87;7.17;;;20.10;99.90;;;;;;5093947;28;20442;-59
2023/09/13 08:06:06;;;;;;;8.00;7.20;;;20.20;99.90;;;;;;5093026;28;20970;-58
2023/09/13 08:08:33;;;;;;;8.73;7.87;;;20.30;99.90;;;;;;5093487;28;20529;-61
2023/09/13 08:11:00;;;;;;;8.17;6.40;;;20.40;99.90;;;;;;5093041;28;20450;-60
2023/09/13 08:13:26;;;;;;;6.50;5.90;;;20.60;99.90;;;;;;5093396;28;20437;-60
2023/09/13 08:15:54;;;;;;;6.47;5.70;;;20.60;99.90;;;;;;5093313;28;20465;-59
2023/09/13 08:18:21;;;;;;;6.03;5.50;;;20.60;99.90;;;;;;5098999;28;20442;-60
2023/09/13 08:20:48;;;;;;;6.90;6.20;;;20.60;99.90;;;;;;5108523;28;20515;-60
2023/09/13 08:23:15;;;;;;;5.97;5.47;;;20.60;99.90;;;;;;5099709;28;20445;-59
2023/09/13 08:25:42;;;;;;;6.10;5.50;;;20.50;99.90;;;;;;5093398;28;20806;-58
2023/09/13 08:28:09;;;;;;;7.47;6.77;;;20.50;99.90;;;;;;5094022;28;20445;-58
2023/09/13 08:30:36;;;;;;;7.00;6.30;;;20.40;99.90;;;;;;5094088;28;20431;-60
2023/09/13 08:33:05;;;;;;;6.97;6.37;;;20.40;99.90;;;;;;5094574;28;20478;-59
2023/09/13 08:35:32;;;;;;;8.20;7.50;;;20.50;99.90;;;;;;5093614;28;20469;-59
2023/09/13 08:37:59;;;;;;;6.83;6.23;;;20.60;99.90;;;;;;5094557;28;20438;-58
2023/09/13 08:40:26;;;;;;;7.33;6.63;;;20.80;99.90;;;;;;5093512;28;20438;-58
2023/09/13 08:42:53;;;;;;;6.47;5.87;;;20.90;99.90;;;;;;5093819;28;20465;-59
2023/09/13 08:45:21;;;;;;;7.43;6.83;;;21.10;99.90;;;;;;5093764;28;20499;-60
2023/09/13 08:47:49;;;;;;;6.97;6.37;;;21.30;99.90;;;;;;5093652;28;20939;-60
2023/09/13 08:50:23;;;;;;;7.17;6.13;;;21.50;99.90;;;;;;5094106;28;20477;-59
2023/09/13 08:52:51;;;;;;;8.10;5.90;;;21.60;99.90;;;;;;5092587;28;20474;-57
2023/09/13 08:55:20;;;;;;;6.13;5.63;;;21.80;99.90;;;;;;5092255;28;20907;-58
2023/09/13 08:57:48;;;;;;;6.80;6.30;;;21.90;99.90;;;;;;5094268;28;20442;-59
2023/09/13 09:00:15;;;;;;;7.13;5.80;;;21.90;99.90;;;;;;5096659;28;20443;-59
2023/09/13 09:02:43;;;;;;;7.13;6.53;;;22.10;99.90;;;;;;5097084;28;20559;-59
2023/09/13 09:05:13;;;;;;;7.20;6.60;;;22.20;99.90;;;;;;5097260;28;20445;-58
2023/09/13 09:07:44;;;;;;;7.53;6.80;;;22.20;99.90;;;;;;5097077;28;20442;-60
2023/09/13 09:10:12;;;;;;;8.70;7.80;;;22.10;99.90;;;;;;5096574;28;20453;-60
2023/09/13 09:12:42;;;;;;;7.57;6.87;;;22.00;99.90;;;;;;5097150;28;20576;-61
2023/09/13 09:15:11;;;;;;;8.40;7.70;;;21.80;99.90;;;;;;5097439;28;20445;-61
2023/09/13 09:17:40;;;;;;;8.40;7.70;;;21.60;99.90;;;;;;5096871;28;20440;-59
2023/09/13 09:20:08;;;;;;;8.53;7.63;;;21.40;99.90;;;;;;5097335;28;20438;-60
2023/09/13 09:22:35;;;;;;;8.60;7.90;;;21.30;99.90;;;;;;5097321;28;20460;-59
2023/09/13 09:25:09;;;;;;;7.63;6.87;;;21.10;99.90;;;;;;5096475;28;20973;-59
2023/09/13 09:27:37;;;;;;;7.67;7.07;;;20.90;99.90;;;;;;5097018;28;20427;-59
2023/09/13 09:30:04;;;;;;;8.67;7.77;;;20.70;99.90;;;;;;5096035;28;20936;-60
2023/09/13 09:32:31;;;;;;;9.30;7.80;;;20.50;99.90;;;;;;5096527;28;20477;-58
2023/09/13 09:34:59;;;;;;;7.00;6.30;;;20.40;99.90;;;;;;5096052;28;20438;-59
2023/09/13 09:37:30;;;;;;;5.43;4.93;;;20.40;99.90;;;;;;5095675;28;20438;-59
2023/09/13 09:39:57;;;;;;;5.23;4.73;;;20.40;99.90;;;;;;5096345;28;20817;-59
2023/09/13 09:42:25;;;;;;;5.30;4.90;;;20.40;99.90;;;;;;5096256;28;20458;-59
2023/09/13 09:44:52;;;;;;;3.63;3.33;;;20.40;99.90;;;;;;5096739;28;20438;-59
2023/09/13 09:47:20;;;;;;;4.67;2.93;;;20.30;99.90;;;;;;5096756;28;20443;-59
2023/09/13 09:49:47;;;;;;;3.30;3.00;;;20.00;99.90;;;;;;5096027;28;20443;-60
2023/09/13 09:52:15;;;;;;;3.30;3.00;;;19.70;99.90;;;;;;5095673;28;20966;-61
2023/09/13 09:54:47;;;;;;;4.13;3.73;;;19.30;99.90;;;;;;5095707;28;20444;-59
2023/09/13 09:57:21;;;;;;;4.00;3.60;;;18.90;99.90;;;;;;5095989;28;20430;-58
2023/09/13 09:59:50;;;;;;;4.33;2.97;;;18.70;99.90;;;;;;5095394;28;20423;-60
2023/09/13 10:02:17;;;;;;;3.20;3.00;;;18.50;99.90;;;;;;5095778;28;20469;-60
2023/09/13 10:04:48;;;;;;;3.20;2.40;;;18.40;99.90;;;;;;5096148;28;20434;-60
2023/09/13 10:07:15;;;;;;;3.60;3.17;;;18.30;99.90;;;;;;5096062;28;20999;-60
2023/09/13 10:09:44;;;;;;;4.30;3.90;;;18.30;99.90;;;;;;5095775;28;20445;-61
2023/09/13 10:12:12;;;;;;;5.33;4.73;;;18.20;99.90;;;;;;5095682;28;20482;-60
2023/09/13 10:14:41;;;;;;;5.07;4.60;;;18.10;99.90;;;;;;5097160;28;20442;-59
2023/09/13 10:17:10;;;;;;;7.07;6.37;;;18.00;99.90;;;;;;5095935;28;20791;-59
2023/09/13 10:19:37;;;;;;;7.27;6.57;;;17.90;99.90;;;;;;5095598;28;20446;-59
2023/09/13 10:22:05;;;;;;;7.60;6.10;;;17.80;99.90;;;;;;5095232;28;20554;-60
2023/09/13 10:24:36;;;;;;;7.23;6.53;;;17.80;99.90;;;;;;5095087;28;20449;-60
2023/09/13 10:27:06;;;;;;;7.90;7.20;;;17.80;99.90;;;;;;5096099;28;20426;-60
2023/09/13 10:29:39;;;;;;;7.60;6.90;;;17.70;99.90;;;;;;5095437;28;20426;-60
2023/09/13 10:32:12;;;;;;;7.47;6.77;;;17.70;99.90;;;;;;5095998;28;20486;-60
2023/09/13 10:34:46;;;;;;;7.23;6.30;;;17.80;99.90;;;;;;5095700;28;20419;-59
2023/09/13 10:37:19;;;;;;;6.97;6.27;;;17.80;99.90;;;;;;5095692;28;20418;-60
2023/09/13 10:39:50;;;;;;;7.20;6.50;;;17.80;99.90;;;;;;5095184;28;20425;-58
2023/09/13 10:42:18;;;;;;;6.80;6.20;;;17.80;99.90;;;;;;5095185;28;20461;-58
2023/09/13 10:44:47;;;;;;;7.40;6.13;;;17.70;99.90;;;;;;5095477;28;20532;-60
2023/09/13 10:47:16;;;;;;;7.40;6.47;;;17.70;99.90;;;;;;5095030;28;20444;-60
2023/09/13 10:49:45;;;;;;;6.57;5.93;;;17.60;99.90;;;;;;5094989;28;20529;-59
2023/09/13 10:52:13;;;;;;;7.87;7.07;;;17.60;99.90;;;;;;5094740;28;20860;-59
2023/09/13 10:54:42;;;;;;;7.57;6.13;;;17.50;99.90;;;;;;5096964;28;20444;-60
2023/09/13 10:57:10;;;;;;;7.33;5.73;;;17.50;99.90;;;;;;5100673;28;20454;-59
2023/09/13 10:59:38;;;;;;;7.33;6.10;;;17.50;99.90;;;;;;5096621;28;20445;-59
2023/09/13 11:02:06;;;;;;;5.40;4.60;;;17.50;99.90;;;;;;5094768;28;21002;-61
2023/09/13 11:04:35;;;;;;;4.57;4.17;;;17.50;99.90;;;;;;5095012;28;20438;-59
2023/09/13 11:07:04;;;;;;;5.00;4.23;;;17.50;99.90;;;;;;5095499;28;20514;-60
2023/09/13 11:09:31;;;;;;;5.67;5.13;;;17.40;99.90;;;;;;5094777;28;20446;-60
2023/09/13 11:11:59;;;;;;;6.63;5.07;;;17.30;99.90;;;;;;5094377;28;20858;-61
2023/09/13 11:14:27;;;;;;;6.10;4.33;;;17.20;99.90;;;;;;5094654;28;20438;-59
2023/09/13 11:16:57;;;;;;;4.13;3.83;;;17.10;99.90;;;;;;5094380;28;20450;-60
2023/09/13 11:19:27;;;;;;;4.70;4.30;;;16.90;99.90;;;;;;5094006;28;20876;-60
2023/09/13 11:22:00;;;;;;;4.43;4.03;;;16.90;99.90;;;;;;5094348;28;20812;-58
2023/09/13 11:24:40;;;;;;;5.10;4.63;;;16.90;99.90;;;;;;5094733;28;20426;-61
2023/09/13 11:27:12;;;;;;;5.67;5.13;;;16.90;99.90;;;;;;5094941;28;20431;-61
2023/09/13 11:29:44;;;;;;;6.23;5.63;;;16.90;99.90;;;;;;5093915;28;20803;-61
2023/09/13 11:32:18;;;;;;;8.03;6.60;;;16.80;99.90;;;;;;5094832;28;20998;-60
2023/09/13 11:34:45;;;;;;;7.93;7.13;;;16.80;99.90;;;;;;5094246;28;20904;-59
2023/09/13 11:37:14;;;;;;;8.57;7.40;;;16.80;99.90;;;;;;5094200;28;20446;-60
2023/09/13 11:39:40;;;;;;;14.10;7.93;;;16.80;99.90;;;;;;5094818;28;20438;-60
2023/09/13 11:42:09;;;;;;;12.40;8.20;;;16.70;99.90;;;;;;5094182;28;20465;-60
2023/09/13 11:44:38;;;;;;;12.37;8.33;;;16.70;99.90;;;;;;5093980;28;20441;-60
2023/09/13 11:47:11;;;;;;;14.13;8.60;;;16.60;99.90;;;;;;5094254;28;20446;-60
2023/09/13 11:49:41;;;;;;;12.97;10.03;;;16.50;99.90;;;;;;5095726;28;20426;-59
2023/09/13 11:52:08;;;;;;;10.20;9.10;;;16.40;99.90;;;;;;5094595;28;20520;-60
2023/09/13 11:54:53;;;;;;;14.10;9.90;;;16.30;99.90;;;;;;5094743;28;20453;-60
2023/09/13 11:57:20;;;;;;;12.50;8.33;;;16.30;99.90;;;;;;5093867;28;20426;-60
2023/09/13 11:59:52;;;;;;;13.13;7.77;;;16.10;99.90;;;;;;5093918;28;20439;-60
2023/09/13 12:02:18;;;;;;;12.13;8.70;;;16.10;99.90;;;;;;5094085;28;20458;-59
2023/09/13 12:04:46;;;;;;;18.23;8.70;;;16.10;99.90;;;;;;5093252;28;20820;-57
2023/09/13 12:07:13;;;;;;;9.17;7.03;;;16.10;99.90;;;;;;5093537;28;20434;-60
2023/09/13 12:09:41;;;;;;;12.47;6.83;;;16.10;99.90;;;;;;5093635;28;20434;-58
2023/09/13 12:12:09;;;;;;;10.23;7.27;;;16.20;99.90;;;;;;5092971;28;20474;-59
2023/09/13 12:14:36;;;;;;;10.20;6.83;;;16.10;99.90;;;;;;5093441;28;20477;-66
2023/09/13 12:17:02;;;;;;;10.33;7.33;;;16.10;99.90;;;;;;5093800;28;20446;-60
2023/09/13 12:19:35;;;;;;;9.10;5.77;;;16.00;99.90;;;;;;5093906;28;20503;-60
2023/09/13 12:22:01;;;;;;;11.80;6.70;;;16.00;99.90;;;;;;5093543;28;20467;-60
2023/09/13 12:24:28;;;;;;;7.50;5.37;;;16.00;99.90;;;;;;5093527;28;20430;-60
2023/09/13 12:26:56;;;;;;;9.30;6.13;;;16.00;99.90;;;;;;5093710;28;20445;-60
2023/09/13 12:29:23;;;;;;;7.50;5.27;;;16.00;99.90;;;;;;5093044;28;20951;-60
2023/09/13 12:31:55;;;;;;;8.30;7.30;;;16.00;99.90;;;;;;5094255;28;20462;-60
2023/09/13 12:34:22;;;;;;;7.93;6.17;;;16.00;99.90;;;;;;5098036;28;20469;-60
2023/09/13 12:36:50;;;;;;;9.23;6.70;;;16.10;99.90;;;;;;5097810;28;20442;-60
2023/09/13 12:39:17;;;;;;;12.00;5.67;;;16.10;99.90;;;;;;5097421;28;20438;-59
2023/09/13 12:41:44;;;;;;;8.40;5.90;;;16.10;99.90;;;;;;5097117;28;20656;-60
2023/09/13 12:44:12;;;;;;;11.03;5.37;;;16.00;99.90;;;;;;5097640;28;20433;-61